• Join FlightAware (Why Join?)
  • Login
  • US Flag 
08:55AM EDT


 

Airport Tracker/Info


-or-


 

Live Flight TrackerFlight Track Log ✈ N6ZQ ✈ 23-Jul-2013 ✈ VA42 - KHYS

Flight Track Log - Related Links

Times and Time Zones

All times are in EDT time to prevent confusion due to time zone crossing. See the N6ZQ flight status page for this flight to view local times or setup timezone preferences in your user account.

Time Position Orientation Groundspeed Altitude Reporting Facility
EDT Latitude Longitude Course Direction KTS MPH feet Rate Location/Type
06:42AM 38.3167 -77.6000 270° West 163 188 6,800  Level Potomac TRACON
06:43AM 38.3167 -77.6500 270° West 140 161 7,700 600 Climbing Potomac TRACON
06:44AM 38.3000 -77.7167 252° West 161 185 8,000 120 Climbing Potomac TRACON
06:45AM 38.3000 -77.7667 270° West 177 204 8,000  Level Potomac TRACON
06:46AM 38.3000 -77.8333 270° West 181 208 8,000  Level Potomac TRACON
06:47AM 38.3000 -77.6433 270° West  Level FlightAware Approximate
06:47AM 38.2833 -77.9000 252° West 181 208 8,000  Level Potomac TRACON
06:48AM 38.3000 -77.9500 293° West 184 212 8,000  Level Potomac TRACON
06:49AM 38.3000 -78.0167 270° West 183 211 8,000  Level Potomac TRACON
06:50AM 38.3000 -78.0833 270° West 188 216 8,000  Level Potomac TRACON
06:51AM 38.3167 -78.1500 288° West 188 216 8,000  Level Potomac TRACON
06:52AM 38.3167 -78.2167 270° West 187 215 8,000  Level Potomac TRACON
06:53AM 38.3333 -78.2833 288° West 186 214 8,000  Level Potomac TRACON
06:54AM 38.3333 -78.3500 270° West 186 214 8,000  Level Potomac TRACON
06:55AM 38.3333 -78.4167 270° West 184 212 8,000 240 Level Potomac TRACON
06:56AM 38.3500 -78.4667 293° West 168 193 8,500 480 Climbing Potomac TRACON
06:57AM 38.3500 -78.5333 270° West 163 188 9,000 480 Climbing Potomac TRACON
06:58AM 38.3617 -78.5706 292° West 177 204 9,500 480 Climbing Washington Center
06:59AM 38.3686 -78.6239 279° West 163 188 10,000 240 Climbing Washington Center
07:00AM 38.3733 -78.6772 276° West 158 182 10,000  Level Washington Center
07:01AM 38.3803 -78.7383 278° West 164 189 10,000  Level Washington Center
07:02AM 38.3869 -78.8022 278° West 177 204 10,000  Level Washington Center
07:03AM 38.3933 -78.8661 277° West 182 209 10,000  Level Washington Center
07:04AM 38.4019 -78.9353 279° West 192 221 10,000  Level Washington Center
07:05AM 38.4106 -78.9992 280° West 192 221 10,000  Level Washington Center
07:06AM 38.4169 -79.0658 277° West 192 221 10,000  Level Washington Center
07:07AM 38.4256 -79.1350 279° West 192 221 10,000  Level Washington Center
07:08AM 38.4319 -79.1992 277° West 192 221 10,000  Level Washington Center
07:09AM 38.4381 -79.2656 277° West 192 221 10,000  Level Washington Center
07:10AM 38.4447 -79.3242 278° West 192 221 10,000  Level Washington Center
07:11AM 38.4531 -79.3883 279° West 192 221 10,000  Level Washington Center
07:12AM 38.4594 -79.4522 277° West 192 221 10,000  Level Washington Center
07:13AM 38.4636 -79.5161 275° West 187 215 10,000  Level Washington Center
07:14AM 38.4717 -79.5856 278° West 182 209 10,100  Climbing Washington Center
07:15AM 38.4781 -79.6469 278° West 182 209 10,100  Level Washington Center
07:16AM 38.4842 -79.7108 277° West 182 209 10,100  Level Washington Center
07:17AM 38.4906 -79.7669 278° West 182 209 10,100  Level Washington Center
07:18AM 38.4950 -79.8231 276° West 182 209 10,100 -60 Level Washington Center
07:19AM 38.5031 -79.8844 280° West 182 209 10,000 -60 Descending Washington Center
07:20AM 38.5094 -79.9431 278° West 182 209 10,000  Level Washington Center
07:21AM 38.5133 -80.0044 275° West 172 198 10,000  Level Washington Center
07:22AM 38.5194 -80.0633 278° West 172 198 10,000  Level Washington Center
07:23AM 38.5256 -80.1247 277° West 172 198 10,000  Level Washington Center
07:24AM 38.5297 -80.1781 276° West 172 198 10,000  Level Washington Center
07:25AM 38.5358 -80.2367 278° West 172 198 10,000  Level Washington Center
07:26AM 38.5439 -80.2983 280° West 177 204 10,000  Level Washington Center
07:27AM 38.5478 -80.3594 275° West 177 204 10,000  Level Washington Center
07:28AM 38.5553 -80.4258 278° West 179 206 10,000  Level Indianapolis Center
07:29AM 38.5619 -80.4958 277° West 184 212 10,000  Level Indianapolis Center
07:30AM 38.5689 -80.5622 278° West 189 217 10,000  Level Indianapolis Center
07:31AM 38.5733 -80.6281 275° West 188 216 10,000  Level Indianapolis Center
07:32AM 38.5817 -80.6944 279° West 189 217 10,000  Level Indianapolis Center
07:33AM 38.5867 -80.7597 276° West 186 214 10,000  Level Indianapolis Center
07:34AM 38.5925 -80.8261 276° West 187 215 10,000  Level Indianapolis Center
07:35AM 38.5989 -80.8922 277° West 188 216 10,000  Level Indianapolis Center
07:36AM 38.6069 -80.9722 277° West 189 217 10,000  Level Indianapolis Center
07:37AM 38.6125 -81.0358 276° West 183 211 10,000  Level Indianapolis Center
07:38AM 38.6189 -81.1025 277° West 188 216 10,000 -60 Level Indianapolis Center
07:39AM 38.6250 -81.1692 277° West 188 216 9,900  Descending Indianapolis Center
07:40AM 38.6308 -81.2333 277° West 182 209 10,000  Climbing Indianapolis Center
07:41AM 38.6369 -81.3006 277° West 189 217 9,900  Descending Indianapolis Center
07:42AM 38.6431 -81.3669 277° West 188 216 10,000  Climbing Indianapolis Center
07:43AM 38.6489 -81.4339 276° West 189 217 10,000  Level Indianapolis Center
07:44AM 38.6544 -81.5014 276° West 190 219 10,000  Level Indianapolis Center
07:45AM 38.6611 -81.5714 277° West 190 219 10,000 -60 Level Indianapolis Center
07:46AM 38.6669 -81.6394 276° West 189 217 9,900 -60 Descending Indianapolis Center
07:47AM 38.6728 -81.7067 276° West 189 217 9,900  Level Indianapolis Center
07:48AM 38.6781 -81.7747 276° West 192 221 10,000  Climbing Indianapolis Center
07:49AM 38.6839 -81.8414 276° West 190 219 10,000  Level Indianapolis Center
07:50AM 38.6906 -81.9208 276° West 188 216 10,000  Level Indianapolis Center
07:51AM 38.6961 -81.9892 276° West 192 221 10,000 -60 Level Indianapolis Center
07:52AM 38.7019 -82.0569 276° West 191 220 9,900  Descending Indianapolis Center
07:53AM 38.7075 -82.1236 276° West 189 217 10,000  Climbing Indianapolis Center
07:54AM 38.7131 -82.1900 276° West 188 216 10,000  Level Indianapolis Center
07:55AM 38.7183 -82.2594 276° West 192 221 10,000  Level Indianapolis Center
07:56AM 38.7233 -82.3256 276° West 189 217 10,000  Level Indianapolis Center
07:57AM 38.7283 -82.3933 275° West 189 217 10,000  Level Indianapolis Center
07:58AM 38.7347 -82.4611 277° West 193 222 10,000  Level Indianapolis Center
07:59AM 38.7408 -82.5439 275° West 194 223 10,000  Level Indianapolis Center
08:00AM 38.7453 -82.6125 275° West 194 223 10,000  Level Indianapolis Center
08:01AM 38.7514 -82.6814 277° West 195 224 10,000  Level Indianapolis Center
08:03AM 38.7558 -82.7503 275° West 194 223 10,000 -60 Level Indianapolis Center
08:04AM 38.7617 -82.8192 276° West 195 224 9,900 -60 Descending Indianapolis Center
08:05AM 38.7675 -82.8878 276° West 194 223 9,900  Level Indianapolis Center
08:06AM 38.7719 -82.9547 275° West 191 220 9,900  Level Indianapolis Center
08:07AM 38.7775 -83.0233 276° West 193 222 10,000  Climbing Indianapolis Center
08:08AM 38.7825 -83.0900 276° West 190 219 10,000 -60 Level Indianapolis Center
08:09AM 38.7872 -83.1706 274° West 193 222 9,900  Descending Indianapolis Center
08:10AM 38.7928 -83.2367 276° West 190 219 10,000  Climbing Indianapolis Center
08:11AM 38.7969 -83.3061 274° West 193 222 10,000 -60 Level Indianapolis Center
08:12AM 38.8022 -83.3722 276° West 189 217 9,900  Descending Indianapolis Center
08:13AM 38.8069 -83.4414 275° West 193 222 10,000  Climbing Indianapolis Center
08:14AM 38.8117 -83.5183 275° West 188 216 10,000 -60 Level Indianapolis Center
08:15AM 38.8167 -83.5847 276° West 187 215 9,900  Descending Indianapolis Center
08:16AM 38.8214 -83.6511 275° West 187 215 10,000  Climbing Indianapolis Center
08:17AM 38.8264 -83.7175 276° West 187 215 10,000  Level Indianapolis Center
08:18AM 38.8308 -83.7839 275° West 187 215 10,000  Level Indianapolis Center
08:19AM 38.8350 -83.8519 275° West 189 217 10,000  Level Indianapolis Center
08:20AM 38.8389 -83.9197 274° West 190 219 10,000  Level Indianapolis Center
08:21AM 38.8442 -83.9975 275° West 188 216 10,000  Level Indianapolis Center
08:22AM 38.8486 -84.0667 275° West 194 223 10,000 240 Level Indianapolis Center
08:23AM 38.8519 -84.1281 274° West 177 204 10,600 480 Climbing Indianapolis Center
08:24AM 38.8581 -84.1819 278° West 156 180 11,100 480 Climbing Indianapolis Center
08:25AM 38.8594 -84.2356 272° West 151 174 11,700 420 Climbing Indianapolis Center
08:26AM 38.8628 -84.2853 275° West 141 162 12,000 120 Climbing Indianapolis Center
08:27AM 38.8667 -84.3442 275° West 160 184 12,000  Level Indianapolis Center
08:28AM 38.8711 -84.4172 274° West 173 199 12,000  Level Indianapolis Center
08:29AM 38.8747 -84.4811 274° West 179 206 12,000  Level Indianapolis Center
08:30AM 38.8792 -84.5372 276° West 180 207 12,000  Level Indianapolis Center
08:31AM 38.8831 -84.6153 274° West 183 211 12,000  Level Indianapolis Center
08:32AM 38.8875 -84.6811 275° West 185 213 12,000  Level Indianapolis Center
08:33AM 38.8914 -84.7461 274° West 184 212 12,000  Level Indianapolis Center
08:34AM 38.8947 -84.8117 274° West 185 213 12,000  Level Indianapolis Center
08:35AM 38.8986 -84.8772 274° West 185 213 12,000  Level Indianapolis Center
08:36AM 38.9031 -84.9442 275° West 187 215 12,000  Level Indianapolis Center
08:37AM 38.9075 -85.0097 275° West 185 213 12,000  Level Indianapolis Center
08:38AM 38.9106 -85.0911 273° West 190 219 12,000  Level Indianapolis Center
08:40AM 38.9156 -85.1594 275° West 193 222 12,000  Level Indianapolis Center
08:41AM 38.9194 -85.2258 274° West 189 217 12,000  Level Indianapolis Center
08:42AM 38.9225 -85.2942 273° West 190 219 12,000  Level Indianapolis Center
08:43AM 38.9275 -85.3597 276° West 188 216 12,000  Level Indianapolis Center
08:44AM 38.9300 -85.4294 273° West 192 221 12,000  Level Indianapolis Center
08:45AM 38.9342 -85.4947 275° West 189 217 12,000  Level Indianapolis Center
08:46AM 38.9372 -85.5758 273° West 188 216 12,000  Level Indianapolis Center
08:47AM 38.9408 -85.6425 274° West 189 217 12,000  Level Indianapolis Center
08:48AM 38.9450 -85.7094 275° West 189 217 12,000  Level Indianapolis Center
08:49AM 38.9481 -85.7767 273° West 189 217 12,000  Level Indianapolis Center
08:50AM 38.9519 -85.8419 274° West 186 214 12,000  Level Indianapolis Center
08:51AM 38.9556 -85.9089 274° West 187 215 12,000  Level Indianapolis Center
08:52AM 38.9581 -85.9747 273° West 186 214 12,000  Level Indianapolis Center
08:53AM 38.9617 -86.0531 273° West 184 212 12,000  Level Indianapolis Center
08:54AM 38.9658 -86.1192 275° West 185 213 12,000  Level Indianapolis Center
08:55AM 38.9683 -86.1864 273° West 187 215 12,000  Level Indianapolis Center
08:56AM 38.9708 -86.2503 273° West 183 211 12,000  Level Indianapolis Center
08:57AM 38.9747 -86.3164 274° West 184 212 12,000  Level Indianapolis Center
08:58AM 38.9772 -86.3836 273° West 187 215 12,000  Level Indianapolis Center
08:59AM 38.9800 -86.4489 273° West 184 212 12,000  Level Indianapolis Center
09:00AM 38.9844 -86.5269 274° West 183 211 12,000  Level Indianapolis Center
09:01AM 38.9864 -86.5925 272° West 184 212 12,000  Level Indianapolis Center
09:02AM 38.9897 -86.6622 274° West 182 209 12,000  Level Indianapolis Center
09:03AM 38.9917 -86.7278 272° West 183 211 12,000  Level Indianapolis Center
09:04AM 38.9942 -86.7931 273° West 183 211 12,000  Level Indianapolis Center
09:05AM 38.9978 -86.8575 274° West 182 209 12,000  Level Indianapolis Center
09:06AM 38.9994 -86.9217 272° West 181 208 12,000  Level Indianapolis Center
09:07AM 39.0022 -86.9856 273° West 179 206 12,000  Level Indianapolis Center
09:08AM 39.0050 -87.0500 273° West 180 207 12,000  Level Indianapolis Center
09:09AM 39.0075 -87.1139 273° West 179 206 12,000  Level Indianapolis Center
09:10AM 39.0108 -87.1928 273° West 183 211 12,000  Level Indianapolis Center
09:11AM 39.0131 -87.2575 273° West 183 211 12,000  Level Indianapolis Center
09:12AM 39.0153 -87.3231 273° West 183 211 12,000  Level Indianapolis Center
09:13AM 39.0181 -87.3883 273° West 183 211 12,000  Level Indianapolis Center
09:15AM 39.0203 -87.4542 273° West 184 212 12,000  Level Indianapolis Center
09:16AM 39.0231 -87.5186 273° West 182 209 12,000  Level Indianapolis Center
09:17AM 39.0247 -87.5831 272° West 180 207 12,000  Level Indianapolis Center
09:18AM 39.0278 -87.6619 273° West 182 209 12,000  Level Indianapolis Center
09:19AM 39.0283 -87.7275 271° West 183 211 12,000  Level Indianapolis Center
09:20AM 39.0314 -87.7939 273° West 185 213 12,000  Level Indianapolis Center
09:21AM 39.0333 -87.8581 272° West 182 209 12,000  Level Indianapolis Center
09:22AM 39.0369 -87.9233 274° West 182 209 12,000  Level Indianapolis Center
09:23AM 39.0386 -87.9900 272° West 185 213 12,000  Level Indianapolis Center
09:24AM 39.0408 -88.0550 273° West 183 211 12,000  Level Indianapolis Center
09:25AM 39.0417 -88.1219 271° West 185 213 12,000  Level Indianapolis Center
09:26AM 39.0428 -88.2031 271° West 185 213 12,000  Level Kansas City Center
09:27AM 39.0453 -88.2689 273° West 184 212 12,000  Level Kansas City Center
09:28AM 39.0475 -88.3358 272° West 186 214 12,000  Level Kansas City Center
09:29AM 39.0483 -88.4008 271° West 182 209 12,000  Level Kansas City Center
09:30AM 39.0503 -88.4672 272° West 185 213 12,000  Level Kansas City Center
09:31AM 39.0528 -88.5319 273° West 183 211 12,000  Level Kansas City Center
09:32AM 39.0422 -88.5989 259° West 197 227 12,000  Level Kansas City Center
09:33AM 39.0472 -88.6686 275° West 183 211 12,000  Level Kansas City Center
09:34AM 39.0458 -88.7336 268° West 182 209 12,000  Level Kansas City Center
09:35AM 39.0506 -88.7989 275° West 182 209 12,000  Level Kansas City Center
09:36AM 39.0539 -88.8639 274° West 183 211 12,000  Level Kansas City Center
09:37AM 39.0550 -88.9283 271° West 182 209 12,000  Level Kansas City Center
09:38AM 39.0592 -89.0086 274° West 185 213 12,100  Climbing Kansas City Center
09:39AM 39.0608 -89.0731 272° West 181 208 12,100 -60 Level Kansas City Center
09:40AM 39.0606 -89.1428 270° West 183 211 12,000  Descending Kansas City Center
09:41AM 39.0431 -89.2047 250° West 187 215 12,100  Climbing Kansas City Center
09:42AM 39.0186 -89.2644 242° Southwest 189 217 12,100  Level Kansas City Center
09:43AM 38.9942 -89.3297 244° Southwest 189 217 12,100 -60 Level Kansas City Center
09:44AM 38.9711 -89.3911 244° Southwest 190 219 12,000 -60 Descending Kansas City Center
09:45AM 38.9456 -89.4567 243° Southwest 192 221 12,000  Level Kansas City Center
09:46AM 38.9200 -89.5167 241° Southwest 192 221 12,000  Level Kansas City Center
09:48AM 38.8925 -89.5808 241° Southwest 192 221 12,000  Level Kansas City Center
09:49AM 38.8722 -89.6431 247° West 189 217 12,000  Level Kansas City Center
09:50AM 38.8497 -89.6953 241° Southwest 191 220 12,000  Level Kansas City Center
09:51AM 38.8206 -89.7675 243° Southwest 191 220 12,000  Level Kansas City Center
09:52AM 38.7989 -89.8275 245° Southwest 187 215 12,000  Level Kansas City Center
09:53AM 38.7753 -89.8897 244° Southwest 191 220 12,000  Level Kansas City Center
09:54AM 38.7519 -89.9506 244° Southwest 192 221 12,000  Level Kansas City Center
09:55AM 38.7278 -90.0125 243° Southwest 192 221 12,000  Level Kansas City Center
09:56AM 38.7025 -90.0736 242° Southwest 194 223 12,000  Level Kansas City Center
09:57AM 38.6717 -90.1467 242° Southwest 195 224 12,000  Level Kansas City Center
09:58AM 38.6472 -90.2044 242° Southwest 196 226 12,000  Level Kansas City Center
09:59AM 38.6208 -90.2653 241° Southwest 196 226 12,000  Level Kansas City Center
10:00AM 38.5950 -90.3269 242° Southwest 196 226 12,000  Level Kansas City Center
10:01AM 38.5667 -90.3953 242° Southwest 198 228 12,000  Level Kansas City Center
10:02AM 38.5436 -90.4581 245° Southwest 195 224 12,000  Level Kansas City Center
10:03AM 38.5189 -90.5197 243° Southwest 195 224 12,000  Level Kansas City Center
10:04AM 38.4914 -90.5800 240° Southwest 195 224 12,000  Level Kansas City Center
10:05AM 38.4650 -90.6558 246° West 195 224 12,000  Level Kansas City Center
10:06AM 38.4403 -90.7169 243° Southwest 194 223 12,000  Level Kansas City Center
10:07AM 38.4147 -90.7783 242° Southwest 196 226 12,000  Level Kansas City Center
10:08AM 38.3894 -90.8392 242° Southwest 195 224 12,000  Level Kansas City Center
10:09AM 38.3644 -90.9022 243° Southwest 198 228 12,000 -60 Level Kansas City Center
10:10AM 38.3386 -90.9633 242° Southwest 197 227 11,900  Descending Kansas City Center
10:11AM 38.3081 -91.0381 242° Southwest 198 228 12,000  Climbing Kansas City Center
10:12AM 38.2825 -91.1011 243° Southwest 201 231 11,900 -60 Descending Kansas City Center
10:13AM 38.2553 -91.1633 241° Southwest 202 232 11,900  Level Kansas City Center
10:14AM 38.2294 -91.2275 243° Southwest 203 234 12,000  Climbing Kansas City Center
10:15AM 38.2033 -91.2917 243° Southwest 205 236 12,000  Level Kansas City Center
10:16AM 38.1764 -91.3561 242° Southwest 207 238 12,000  Level Kansas City Center
10:17AM 38.1458 -91.4294 242° Southwest 207 238 12,000  Level Kansas City Center
10:19AM 38.1164 -91.4939 240° Southwest 209 241 12,000  Level Kansas City Center
10:20AM 38.0872 -91.5581 240° Southwest 210 242 12,000  Level Kansas City Center
10:21AM 38.0653 -91.6250 247° West 205 236 12,100  Climbing Kansas City Center
10:22AM 38.0317 -91.7039 242° Southwest 209 241 12,000 -60 Descending Kansas City Center
10:23AM 38.0036 -91.7683 241° Southwest 209 241 12,000  Level Kansas City Center
10:24AM 37.9764 -91.8331 242° Southwest 207 238 12,100  Climbing Kansas City Center
10:25AM 37.9483 -91.8989 242° Southwest 210 242 12,100  Level Kansas City Center
10:26AM 37.9203 -91.9667 242° Southwest 214 246 12,100 -60 Level Kansas City Center
10:27AM 37.8917 -92.0339 242° Southwest 215 247 12,000 -120 Descending Kansas City Center
10:28AM 37.8633 -92.0992 241° Southwest 212 244 11,900 -60 Descending Kansas City Center
10:29AM 37.8297 -92.1778 242° Southwest 210 242 11,900  Level Kansas City Center
10:30AM 37.8022 -92.2442 242° Southwest 210 242 12,000  Climbing Kansas City Center
10:31AM 37.7733 -92.3086 240° Southwest 210 242 11,900  Descending Kansas City Center
10:32AM 37.7461 -92.3725 242° Southwest 207 238 12,000 60 Climbing Kansas City Center
10:33AM 37.7386 -92.4386 262° West 204 235 12,100  Climbing Kansas City Center
10:34AM 37.7397 -92.5072 271° West 195 224 12,000 -60 Descending Kansas City Center
10:35AM 37.7406 -92.5761 271° West 195 224 12,000  Level Kansas City Center
10:36AM 37.7419 -92.6456 271° West 196 226 12,000  Level Kansas City Center
10:37AM 37.7436 -92.7142 272° West 196 226 12,000  Level Kansas City Center
10:38AM 37.7458 -92.7975 272° West 197 227 12,000  Level Kansas City Center
10:39AM 37.7467 -92.8678 271° West 199 229 12,000  Level Kansas City Center
10:40AM 37.7478 -92.9389 271° West 201 231 12,000  Level Kansas City Center
10:41AM 37.7489 -93.0072 271° West 198 228 12,000  Level Kansas City Center
10:43AM 37.7507 -93.0886 272° West  Level FlightAware Approximate
10:43AM 37.7528 -93.1486 272° West 201 231 12,000  Level Kansas City Center
10:44AM 37.7542 -93.2183 271° West 199 229 12,000  Level Kansas City Center
10:45AM 37.7547 -93.3036 270° West 202 232 12,100  Climbing Kansas City Center
10:46AM 37.7589 -93.3725 274° West 198 228 12,000 -60 Descending Kansas City Center
10:47AM 37.7589 -93.4433 270° West 200 230 12,000  Level Kansas City Center
10:48AM 37.7614 -93.5122 273° West 198 228 12,000  Level Kansas City Center
10:50AM 37.7644 -93.5814 273° West 196 226 12,000  Level Kansas City Center
10:51AM 37.7658 -93.6506 271° West 197 227 12,000  Level Kansas City Center
10:52AM 37.7686 -93.7328 272° West 195 224 12,000  Level Kansas City Center
10:53AM 37.7717 -93.8017 273° West 197 227 12,000  Level Kansas City Center
10:54AM 37.7733 -93.8728 272° West 199 229 12,000  Level Kansas City Center
10:55AM 37.7714 -93.9431 268° West 201 231 12,000  Level Kansas City Center
10:56AM 37.7744 -94.0142 273° West 202 232 12,000  Level Kansas City Center
10:57AM 37.7764 -94.0850 272° West 202 232 12,000  Level Kansas City Center
10:58AM 37.7756 -94.1561 269° West 202 232 12,000  Level Kansas City Center
10:59AM 37.7756 -94.2417 270° West 203 234 12,000  Level Kansas City Center
11:00AM 37.7756 -94.3125 270° West 202 232 12,000  Level Kansas City Center
11:01AM 37.7772 -94.3844 272° West 203 234 12,000  Level Kansas City Center
11:02AM 37.7764 -94.4572 269° West 204 235 12,000  Level Kansas City Center
11:03AM 37.7772 -94.5261 271° West 205 236 12,000  Level Kansas City Center
11:04AM 37.7767 -94.6033 270° West 200 230 12,000  Level Kansas City Center
11:05AM 37.7767 -94.6711 270° West 200 230 12,000  Level Kansas City Center
11:06AM 37.7767 -94.7475 270° West 197 227 12,000  Level Kansas City Center
11:07AM 37.7781 -94.8139 272° West 196 226 12,000  Level Kansas City Center
11:08AM 37.7778 -94.8897 270° West 194 223 12,000  Level Kansas City Center
11:09AM 37.7772 -94.9569 269° West 196 226 12,000  Level Kansas City Center
11:10AM 37.7769 -95.0358 270° West 199 229 12,000  Level Kansas City Center
11:11AM 37.7767 -95.1081 270° West 197 227 12,000  Level Kansas City Center
11:12AM 37.7767 -95.1769 270° West 197 227 12,000  Level Kansas City Center
11:13AM 37.7761 -95.2458 269° West 196 226 12,000  Level Kansas City Center
11:14AM 37.7764 -95.3122 270° West 192 221 12,000  Level Kansas City Center
11:15AM 37.7753 -95.3789 269° West 191 220 12,000  Level Kansas City Center
11:16AM 37.7758 -95.4486 271° West 194 223 12,000  Level Kansas City Center
11:17AM 37.7744 -95.5275 269° West 191 220 12,000  Level Kansas City Center
11:18AM 37.7744 -95.5928 270° West 188 216 12,000  Level Kansas City Center
11:20AM 37.7875 -95.6558 285° West 185 213 12,000  Level Kansas City Center
11:21AM 37.8072 -95.7181 292° West 189 217 12,000  Level Kansas City Center
11:22AM 37.8261 -95.7819 291° West 193 222 12,000  Level Kansas City Center
11:23AM 37.8458 -95.8444 292° West 193 222 12,000  Level Kansas City Center
11:24AM 37.8656 -95.9067 292° West 192 221 12,000  Level Kansas City Center
11:25AM 37.8892 -95.9844 291° West 194 223 12,000  Level Kansas City Center
11:26AM 37.9083 -96.0467 291° West 192 221 12,000  Level Kansas City Center
11:27AM 37.9272 -96.1089 291° West 191 220 12,000  Level Kansas City Center
11:28AM 37.9453 -96.1689 291° West 193 222 12,000  Level Kansas City Center
11:29AM 37.9650 -96.2286 293° West 188 216 12,000  Level Kansas City Center
11:30AM 37.9844 -96.3003 289° West 181 208 12,000  Level Kansas City Center
11:31AM 38.0025 -96.3603 291° West 182 209 12,000  Level Kansas City Center
11:32AM 38.0231 -96.4192 294° West 181 208 12,000  Level Kansas City Center
11:33AM 38.0403 -96.4792 290° West 181 208 12,000  Level Kansas City Center
11:34AM 38.0583 -96.5383 291° West 180 207 12,000  Level Kansas City Center
11:35AM 38.0756 -96.5975 290° West 180 207 12,000  Level Kansas City Center
11:36AM 38.0978 -96.6697 291° West 181 208 12,000  Level Kansas City Center
11:37AM 38.1161 -96.7294 291° West 182 209 12,000  Level Kansas City Center
11:38AM 38.1342 -96.7917 290° West 184 212 12,000  Level Kansas City Center
11:39AM 38.1514 -96.8503 291° West 183 211 12,000  Level Kansas City Center
11:40AM 38.1697 -96.9092 292° West 180 207 12,000  Level Kansas City Center
11:41AM 38.1869 -96.9669 291° West 177 204 12,000  Level Kansas City Center
11:42AM 38.2067 -97.0342 290° West 172 198 12,000  Level Kansas City Center
11:43AM 38.2242 -97.0919 291° West 174 200 12,000  Level Kansas City Center
11:44AM 38.2414 -97.1500 291° West 175 201 12,000  Level Kansas City Center
11:45AM 38.2589 -97.2092 291° West 178 205 12,000  Level Kansas City Center
11:46AM 38.2761 -97.2689 290° West 180 207 12,000  Level Kansas City Center
11:47AM 38.2933 -97.3283 290° West 180 207 12,000  Level Kansas City Center
11:48AM 38.3147 -97.4011 291° West 183 211 12,000  Level Kansas City Center
11:49AM 38.3331 -97.4622 291° West 185 213 12,000  Level Kansas City Center
11:51AM 38.3508 -97.5247 290° West 188 216 12,000  Level Kansas City Center
11:52AM 38.3689 -97.5869 290° West 188 216 12,000  Level Kansas City Center
11:53AM 38.3872 -97.6497 290° West 191 220 12,000  Level Kansas City Center
11:54AM 38.4092 -97.7261 290° West 192 221 12,000  Level Kansas City Center
11:55AM 38.4269 -97.7886 290° West 190 219 12,000  Level Kansas City Center
11:56AM 38.4447 -97.8522 290° West 192 221 12,000  Level Kansas City Center
11:57AM 38.4631 -97.9136 291° West 187 215 12,000  Level Kansas City Center
11:58AM 38.4806 -97.9742 290° West 184 212 12,000 -120 Level Kansas City Center
11:59AM 38.4967 -98.0333 289° West 179 206 11,800 -480 Descending Kansas City Center
12:00PM 38.5192 -98.1094 291° West 190 219 11,100 -600 Descending Kansas City Center
12:01PM 38.5381 -98.1769 290° West 201 231 10,600 -540 Descending Kansas City Center
12:02PM 38.5581 -98.2453 291° West 204 235 10,000 -600 Descending Kansas City Center
12:03PM 38.5764 -98.3142 289° West 206 237 9,400 -600 Descending Kansas City Center
12:04PM 38.5964 -98.3847 290° West 211 243 8,800 -540 Descending Kansas City Center
12:05PM 38.6153 -98.4528 290° West 204 235 8,300 -540 Descending Kansas City Center
12:06PM 38.6369 -98.5300 290° West 193 222 7,700 -540 Descending Kansas City Center
12:07PM 38.6550 -98.5928 290° West 190 219 7,200 -480 Descending Kansas City Center
12:08PM 38.6739 -98.6592 290° West 197 227 6,800 -480 Descending Kansas City Center
12:09PM 38.6933 -98.7289 290° West 206 237 6,300 -540 Descending Kansas City Center
12:10PM 38.7122 -98.7983 289° West 209 241 5,800 -540 Descending Kansas City Center
12:11PM 38.7322 -98.8731 289° West 215 247 5,200 -720 Descending Kansas City Center
12:12PM 38.7569 -98.9642 289° West 221 254 4,300 -900 Descending Kansas City Center